Time;durP1;ratioP1;P1;durP2;ratioP2;P2;SDS_P1;SDS_P2;PMS_P1;PMS_P2;Temp;Humidity;BMP_temperature;BMP_pressure;BME280_temperature;BME280_humidity;BME280_pressure;Samples;Min_cycle;Max_cycle;Signal;HPM_P1;HPM_P2
2022/01/15 00:00:36;;;;;;;;;108.50;96.00;;;;;2.70;100.00;102709.53;5076170;27;45450;-83
2022/01/15 00:03:02;;;;;;;;;133.00;117.75;;;;;2.70;100.00;102706.91;5076103;28;44800;-83
2022/01/15 00:05:30;;;;;;;;;130.50;116.25;;;;;2.70;100.00;102702.53;5076086;28;45326;-83
2022/01/15 00:07:55;;;;;;;;;144.25;124.00;;;;;2.69;100.00;102699.91;5057906;28;44809;-83
2022/01/15 00:10:25;;;;;;;;;143.75;125.00;;;;;2.70;100.00;102705.16;5083429;28;44715;-83
2022/01/15 00:12:51;;;;;;;;;130.25;114.75;;;;;2.70;100.00;102699.91;5076591;27;44800;-82
2022/01/15 00:15:23;;;;;;;;;142.25;123.50;;;;;2.67;100.00;102707.78;5075954;27;45308;-84
2022/01/15 00:18:01;;;;;;;;;147.50;123.50;;;;;2.67;100.00;102706.94;5076258;28;44701;-82
2022/01/15 00:20:28;;;;;;;;;148.50;128.50;;;;;2.68;100.00;102701.66;5075758;28;44719;-83
2022/01/15 00:22:55;;;;;;;;;145.25;128.50;;;;;2.67;100.00;102701.69;5075580;27;44809;-83
2022/01/15 00:25:23;;;;;;;;;136.00;125.50;;;;;2.67;100.00;102697.28;5057289;28;45676;-82
2022/01/15 00:27:49;;;;;;;;;129.00;113.75;;;;;2.64;100.00;102693.81;5075795;28;45405;-83
2022/01/15 00:30:15;;;;;;;;;138.25;123.00;;;;;2.63;100.00;102692.94;5076099;28;44815;-82
2022/01/15 00:32:41;;;;;;;;;136.25;118.25;;;;;2.60;100.00;102689.44;5079124;27;45242;-82
2022/01/15 00:35:10;;;;;;;;;146.50;124.50;;;;;2.58;100.00;102690.31;5087659;28;45280;-83
2022/01/15 00:37:36;;;;;;;;;158.00;127.50;;;;;2.57;100.00;102687.72;5089526;27;44733;-82
2022/01/15 00:40:05;;;;;;;;;141.75;126.75;;;;;2.55;100.00;102684.19;5079378;27;45387;-83
2022/01/15 00:42:32;;;;;;;;;147.75;128.50;;;;;2.55;100.00;102681.56;5078980;27;44830;-82
2022/01/15 00:44:59;;;;;;;;;155.75;130.00;;;;;2.53;100.00;102676.34;5060948;28;45057;-82
2022/01/15 00:47:28;;;;;;;;;146.25;127.00;;;;;2.51;100.00;102682.44;5078642;27;45455;-83
2022/01/15 00:49:53;;;;;;;;;135.00;119.75;;;;;2.50;100.00;102685.97;5079120;27;44829;-83
2022/01/15 00:52:19;;;;;;;;;138.75;118.75;;;;;2.50;100.00;102671.09;5078979;27;45346;-84
2022/01/15 00:54:44;;;;;;;;;155.00;126.50;;;;;2.52;100.00;102678.97;5079300;27;46143;-83
2022/01/15 00:57:09;;;;;;;;;96.25;68.75;;;;;2.52;100.00;102681.59;5063178;28;44849;-83
2022/01/15 00:59:35;;;;;;;;;141.50;120.50;;;;;2.51;100.00;102674.56;5083339;27;44820;-82
2022/01/15 01:02:00;;;;;;;;;147.75;125.00;;;;;2.51;100.00;102666.72;5085196;27;44816;-81
2022/01/15 01:04:26;;;;;;;;;149.50;128.25;;;;;2.48;100.00;102672.84;5078705;27;45305;-81
2022/01/15 01:06:51;;;;;;;;;132.00;111.00;;;;;2.46;100.00;102665.84;5079034;27;44808;-82
2022/01/15 01:09:17;;;;;;;;;140.25;117.75;;;;;2.46;100.00;102660.59;5078738;27;44982;-82
2022/01/15 01:11:52;;;;;;;;;147.75;123.75;;;;;2.45;100.00;102657.13;5079015;27;45429;-82
2022/01/15 01:20:09;;;;;;;;;96.75;80.50;;;;;2.44;100.00;102652.75;5080738;28;44764;-81
2022/01/15 01:25:09;;;;;;;;;152.50;135.75;;;;;2.39;100.00;102651.03;5083699;28;45392;-81
2022/01/15 01:27:48;;;;;;;;;142.00;126.00;;;;;2.36;100.00;102646.63;5078309;27;45410;-80
2022/01/15 01:30:39;;;;;;;;;155.75;142.00;;;;;2.33;100.00;102644.03;5078542;27;45319;-82
2022/01/15 01:33:53;;;;;;;;;168.50;143.50;;;;;2.27;100.00;102641.41;5078030;28;45572;-83
2022/01/15 01:36:04;;;;;;;;;156.00;138.50;;;;;2.23;100.00;102640.56;5063531;27;45156;-82
2022/01/15 01:38:35;;;;;;;;;190.25;161.00;;;;;2.22;100.00;102640.53;5077818;27;44730;-81
2022/01/15 01:41:01;;;;;;;;;177.75;156.25;;;;;2.19;100.00;102632.72;5078266;28;44796;-81
2022/01/15 01:44:16;;;;;;;;;181.75;154.25;;;;;2.16;100.00;102637.94;5078116;27;45487;-83
2022/01/15 01:48:43;;;;;;;;;174.25;157.25;;;;;2.10;100.00;102632.72;5079790;27;44858;-81
2022/01/15 01:51:21;;;;;;;;;177.75;153.50;;;;;2.09;100.00;102637.09;5078392;27;44833;-82
2022/01/15 01:53:47;;;;;;;;;175.50;152.75;;;;;2.06;100.00;102630.09;5082276;27;44733;-82
2022/01/15 01:56:13;;;;;;;;;153.25;135.25;;;;;2.07;100.00;102630.97;5081726;27;45172;-82
2022/01/15 01:58:38;;;;;;;;;178.25;142.25;;;;;2.11;100.00;102635.31;5082038;27;44778;-81
2022/01/15 02:01:04;;;;;;;;;156.25;145.00;;;;;2.13;100.00;102636.22;5060744;28;44830;-82
2022/01/15 02:03:30;;;;;;;;;164.50;139.00;;;;;2.13;100.00;102620.47;5059437;28;45198;-81
2022/01/15 02:05:55;;;;;;;;;169.00;144.00;;;;;2.16;100.00;102620.47;5078550;27;45158;-82
2022/01/15 02:08:20;;;;;;;;;138.00;131.75;;;;;2.15;100.00;102613.47;5083909;27;44764;-82
2022/01/15 02:10:46;;;;;;;;;176.25;148.25;;;;;2.15;100.00;102609.97;5083455;27;45319;-82
2022/01/15 02:13:13;;;;;;;;;150.75;139.50;;;;;2.16;100.00;102603.84;5061946;28;45032;-82
2022/01/15 02:15:38;;;;;;;;;173.50;151.50;;;;;2.12;100.00;102604.72;5077891;27;45264;-82
2022/01/15 02:18:04;;;;;;;;;140.25;122.25;;;;;2.11;100.00;102605.63;5078756;27;45339;-82
2022/01/15 02:25:58;;;;;;;;;188.50;149.00;;;;;2.03;100.00;102608.25;5077025;27;44928;-81
2022/01/15 02:28:28;;;;;;;;;172.75;152.00;;;;;2.01;100.00;102610.00;5077161;27;44830;-81
2022/01/15 02:31:01;;;;;;;;;166.75;147.50;;;;;1.98;100.00;102603.03;5077494;27;44773;-82
2022/01/15 02:33:27;;;;;;;;;178.75;160.00;;;;;1.96;100.00;102603.88;5059652;28;44794;-83
2022/01/15 02:35:53;;;;;;;;;185.25;163.50;;;;;1.93;100.00;102596.91;5083359;28;45451;-81
2022/01/15 02:38:19;;;;;;;;;187.33;157.67;;;;;1.90;100.00;102598.66;5089736;27;45266;-81
2022/01/15 02:40:45;;;;;;;;;184.67;164.00;;;;;1.90;100.00;102603.91;5097988;27;45263;-83
2022/01/15 02:43:16;;;;;;;;;201.67;167.33;;;;;1.87;100.00;102602.16;5098218;27;44749;-82
2022/01/15 02:45:44;;;;;;;;;185.33;162.33;;;;;1.85;100.00;102597.81;5097793;27;45385;-82
2022/01/15 02:48:14;;;;;;;;;196.00;167.00;;;;;1.82;100.00;102601.28;5097660;27;44983;-82
2022/01/15 02:50:41;;;;;;;;;189.00;161.25;;;;;1.82;100.00;102600.41;5079126;27;45426;-82
2022/01/15 02:53:09;;;;;;;;;174.00;163.50;;;;;1.79;100.00;102593.44;5097603;27;44604;-82
2022/01/15 02:55:35;;;;;;;;;181.50;156.50;;;;;1.76;100.00;102585.56;5079053;27;46574;-82
2022/01/15 02:58:01;;;;;;;;;187.25;155.75;;;;;1.74;100.00;102585.59;5097171;27;44884;-82
2022/01/15 03:00:27;;;;;;;;;170.25;152.50;;;;;1.73;100.00;102589.06;5097792;27;44723;-82
2022/01/15 03:02:53;;;;;;;;;184.75;160.75;;;;;1.72;100.00;102583.81;5098619;27;45339;-82
2022/01/15 03:05:20;;;;;;;;;160.00;142.50;;;;;1.70;100.00;102575.09;5103709;27;44924;-82
2022/01/15 03:07:45;;;;;;;;;187.50;157.75;;;;;1.70;100.00;102570.75;5104033;27;44849;-82
2022/01/15 03:10:11;;;;;;;;;170.50;148.75;;;;;1.70;100.00;102575.09;5097610;27;45376;-82
2022/01/15 03:12:37;;;;;;;;;186.25;152.00;;;;;1.71;100.00;102569.84;5097588;27;44904;-82
2022/01/15 03:15:07;;;;;;;;;193.00;160.00;;;;;1.70;100.00;102570.75;5102032;27;45370;-82
2022/01/15 03:17:33;;;;;;;;;197.75;169.50;;;;;1.71;100.00;102566.38;5102989;27;44753;-82
2022/01/15 03:19:59;;;;;;;;;171.50;154.00;;;;;1.69;100.00;102566.38;5097595;27;44757;-82
2022/01/15 03:22:24;;;;;;;;;173.75;145.75;;;;;1.68;100.00;102564.59;5097759;27;45314;-81
2022/01/15 03:24:51;;;;;;;;;193.00;162.00;;;;;1.67;100.00;102564.63;5078544;27;45176;-82
2022/01/15 03:27:16;;;;;;;;;195.75;161.25;;;;;1.66;100.00;102576.84;5077709;27;45382;-81
2022/01/15 03:29:43;;;;;;;;;182.67;162.33;;;;;1.66;100.00;102573.34;5096858;27;44807;-81
2022/01/15 03:32:08;;;;;;;;;185.00;160.00;;;;;1.66;100.00;102561.13;5078538;27;45221;-81
2022/01/15 03:34:33;;;;;;;;;168.00;145.75;;;;;1.65;100.00;102558.53;5078809;27;46520;-82
2022/01/15 03:36:59;;;;;;;;;187.00;163.33;;;;;1.66;100.00;102557.63;5100920;27;44689;-83
2022/01/15 03:39:24;;;;;;;;;185.00;159.33;;;;;1.62;100.00;102550.66;5099869;27;45216;-80
2022/01/15 03:41:50;;;;;;;;;197.00;164.67;;;;;1.61;100.00;102546.28;5096822;27;44840;-81
2022/01/15 03:44:15;;;;;;;;;195.50;162.50;;;;;1.61;100.00;102544.53;5096569;27;45239;-82
2022/01/15 03:46:41;;;;;;;;;206.67;174.00;;;;;1.58;100.00;102536.69;5078120;27;44870;-81
2022/01/15 03:49:06;;;;;;;;;175.25;159.75;;;;;1.58;100.00;102541.03;5096974;27;45377;-82
2022/01/15 03:51:32;;;;;;;;;188.75;166.50;;;;;1.58;100.00;102536.69;5096438;27;45447;-81
2022/01/15 03:53:57;;;;;;;;;184.00;162.33;;;;;1.55;100.00;102531.47;5101118;27;45487;-82
2022/01/15 03:56:23;;;;;;;;;185.00;169.33;;;;;1.54;100.00;102529.69;5100398;27;44805;-81
2022/01/15 03:58:48;;;;;;;;;188.67;158.33;;;;;1.52;100.00;102537.56;5096913;27;45124;-81
2022/01/15 04:01:13;;;;;;;;;203.67;178.00;;;;;1.49;100.00;102531.44;5096654;27;44827;-82
2022/01/15 04:03:39;;;;;;;;;196.33;168.33;;;;;1.46;100.00;102526.22;5095955;27;45472;-81
2022/01/15 04:06:04;;;;;;;;;194.33;163.00;;;;;1.43;100.00;102521.84;5097324;27;45440;-82
2022/01/15 04:08:30;;;;;;;;;186.67;163.00;;;;;1.41;100.00;102512.25;5103722;27;44802;-82
2022/01/15 04:10:56;;;;;;;;;190.67;168.00;;;;;1.39;100.00;102508.75;5088825;27;44941;-82
2022/01/15 04:13:21;;;;;;;;;180.33;168.67;;;;;1.35;100.00;102507.88;5100511;27;45092;-81
2022/01/15 04:15:52;;;;;;;;;168.67;155.00;;;;;1.33;100.00;102511.38;5100407;27;44806;-81
2022/01/15 04:18:18;;;;;;;;;203.33;171.00;;;;;1.31;100.00;102515.75;5100071;27;44847;-82
2022/01/15 04:20:44;;;;;;;;;196.67;172.67;;;;;1.29;100.00;102505.25;5099790;27;45402;-80
2022/01/15 04:23:09;;;;;;;;;196.33;168.00;;;;;1.28;100.00;102509.63;5081424;27;45676;-82
2022/01/15 04:25:35;;;;;;;;;170.67;156.67;;;;;1.26;100.00;102507.91;5099305;27;45416;-83
2022/01/15 04:28:02;;;;;;;;;190.67;168.00;;;;;1.23;100.00;102503.53;5100130;27;44820;-80
2022/01/15 04:30:28;;;;;;;;;175.33;159.67;;;;;1.21;100.00;102496.53;5101528;27;44729;-81
2022/01/15 04:32:53;;;;;;;;;191.33;165.67;;;;;1.22;100.00;102507.03;5085400;27;45451;-80
2022/01/15 04:35:19;;;;;;;;;181.33;160.00;;;;;1.22;100.00;102493.06;5082376;27;44724;-82
2022/01/15 04:37:48;;;;;;;;;184.67;165.33;;;;;1.20;100.00;102498.28;5081313;27;44797;-82
2022/01/15 04:40:15;;;;;;;;;177.00;155.50;;;;;1.20;100.00;102489.56;5100165;27;44859;-81
2022/01/15 04:42:41;;;;;;;;;190.00;162.33;;;;;1.20;100.00;102492.16;5103478;27;45459;-81
2022/01/15 04:45:08;;;;;;;;;208.00;161.00;;;;;1.20;100.00;102486.94;5103530;27;44730;-81
2022/01/15 04:47:37;;;;;;;;;190.25;164.25;;;;;1.18;100.00;102484.34;5099191;27;45448;-80
2022/01/15 04:50:07;;;;;;;;;179.67;158.67;;;;;1.16;100.00;102480.84;5099195;27;44978;-81
2022/01/15 04:52:36;;;;;;;;;177.25;148.25;;;;;1.14;100.00;102481.72;5096290;27;45265;-81
2022/01/15 04:55:02;;;;;;;;;194.67;167.33;;;;;1.13;100.00;102480.84;5099355;27;44762;-81
2022/01/15 04:57:28;;;;;;;;;186.00;165.33;;;;;1.10;100.00;102478.22;5099727;27;44754;-81
2022/01/15 04:59:54;;;;;;;;;187.33;165.00;;;;;1.12;100.00;102473.88;5080716;27;44884;-82
2022/01/15 05:02:19;;;;;;;;;192.00;158.00;;;;;1.10;100.00;102472.13;5098812;27;45388;-82
2022/01/15 05:04:45;;;;;;;;;189.67;158.33;;;;;1.13;100.00;102477.34;5098858;27;44787;-82
2022/01/15 05:07:10;;;;;;;;;189.75;158.00;;;;;1.14;100.00;102481.72;5099166;27;44839;-82
2022/01/15 05:09:36;;;;;;;;;190.00;159.00;;;;;1.14;100.00;102485.19;5104692;27;45466;-82
2022/01/15 05:12:09;;;;;;;;;192.50;165.50;;;;;1.13;100.00;102473.00;5101224;27;45424;-81
2022/01/15 05:14:35;;;;;;;;;186.25;165.75;;;;;1.15;100.00;102478.22;5098372;27;44785;-82
2022/01/15 05:17:02;;;;;;;;;181.25;152.25;;;;;1.16;100.00;102474.72;5099519;27;44780;-82
2022/01/15 05:19:28;;;;;;;;;187.50;161.75;;;;;1.15;100.00;102467.75;5099140;27;44831;-82
2022/01/15 05:21:57;;;;;;;;;179.50;152.75;;;;;1.14;100.00;102466.88;5102636;27;45487;-83
2022/01/15 05:24:27;;;;;;;;;185.00;152.75;;;;;1.14;100.00;102463.38;5099274;27;45342;-82
2022/01/15 05:26:54;;;;;;;;;173.00;149.00;;;;;1.12;100.00;102462.53;5100882;27;44720;-81
2022/01/15 05:29:20;;;;;;;;;180.00;159.75;;;;;1.12;100.00;102468.63;5100646;27;44705;-82
2022/01/15 05:31:45;;;;;;;;;194.00;155.67;;;;;1.10;100.00;102469.50;5101527;27;45417;-81
2022/01/15 05:34:10;;;;;;;;;187.00;161.00;;;;;1.10;100.00;102472.13;5102888;27;44713;-81
2022/01/15 05:36:36;;;;;;;;;174.75;150.75;;;;;1.10;100.00;102474.72;5082537;27;44808;-81
2022/01/15 05:39:02;;;;;;;;;180.67;158.33;;;;;1.10;100.00;102474.72;5100618;27;44882;-81
2022/01/15 05:41:28;;;;;;;;;180.00;158.75;;;;;1.09;100.00;102468.63;5100579;27;45336;-83
2022/01/15 05:43:53;;;;;;;;;163.00;143.50;;;;;1.11;100.00;102468.63;5099655;27;45300;-82
2022/01/15 05:46:18;;;;;;;;;166.50;150.75;;;;;1.11;100.00;102472.09;5102425;27;45401;-82
2022/01/15 05:48:44;;;;;;;;;180.75;151.50;;;;;1.11;100.00;102471.22;5102484;27;44832;-82
2022/01/15 05:51:09;;;;;;;;;162.50;149.50;;;;;1.11;100.00;102471.22;5082775;27;45012;-82
2022/01/15 05:53:35;;;;;;;;;163.67;145.67;;;;;1.09;100.00;102476.47;5106144;27;44748;-83
2022/01/15 05:56:00;;;;;;;;;173.75;154.75;;;;;1.09;100.00;102475.59;5105960;27;45632;-82
2022/01/15 05:58:26;;;;;;;;;177.25;156.25;;;;;1.09;100.00;102476.47;5105208;27;45308;-81
2022/01/15 06:00:51;;;;;;;;;146.25;127.50;;;;;1.10;100.00;102487.81;5098256;27;45196;-82
2022/01/15 06:03:16;;;;;;;;;192.33;156.00;;;;;1.09;100.00;102480.84;5099184;27;44792;-83
2022/01/15 06:05:43;;;;;;;;;179.33;161.67;;;;;1.08;100.00;102479.09;5079870;27;44673;-81
2022/01/15 06:08:08;;;;;;;;;184.33;155.00;;;;;1.05;100.00;102472.09;5097993;27;44765;-82
2022/01/15 06:10:34;;;;;;;;;182.00;156.67;;;;;1.02;100.00;102475.59;5098083;27;45361;-82
2022/01/15 06:13:00;;;;;;;;;163.67;143.00;;;;;1.05;100.00;102482.56;5097823;27;44715;-82
2022/01/15 06:15:25;;;;;;;;;186.50;160.25;;;;;1.05;100.00;102479.09;5098027;27;45244;-82
2022/01/15 06:17:50;;;;;;;;;187.67;164.67;;;;;1.05;100.00;102479.97;5080195;27;45422;-82
2022/01/15 06:20:16;;;;;;;;;173.75;152.00;;;;;1.05;100.00;102479.09;5079392;27;45391;-83
2022/01/15 06:22:42;;;;;;;;;187.67;157.67;;;;;1.05;100.00;102477.34;5081548;27;44751;-83
2022/01/15 06:25:08;;;;;;;;;181.00;153.00;;;;;1.05;100.00;102482.56;5087093;27;44811;-83
2022/01/15 06:27:33;;;;;;;;;183.50;157.25;;;;;1.03;100.00;102466.00;5106502;27;44826;-81
2022/01/15 06:29:59;;;;;;;;;183.00;160.67;;;;;1.00;100.00;102468.63;5103044;27;45431;-82
2022/01/15 06:32:28;;;;;;;;;206.25;162.00;;;;;0.99;100.00;102472.97;5103374;27;45346;-82
2022/01/15 06:34:54;;;;;;;;;180.33;162.00;;;;;0.97;100.00;102477.34;5081176;27;44844;-83
2022/01/15 06:37:20;;;;;;;;;187.25;162.50;;;;;0.96;100.00;102469.47;5099534;27;44827;-82
2022/01/15 06:39:46;;;;;;;;;137.25;120.25;;;;;0.92;100.00;102470.34;5080437;27;45253;-82
2022/01/15 06:42:12;;;;;;;;;174.50;145.00;;;;;0.92;100.00;102465.13;5059454;28;44997;-82
2022/01/15 06:44:37;;;;;;;;;186.00;154.25;;;;;0.92;100.00;102462.50;5059946;28;44796;-82
2022/01/15 06:47:03;;;;;;;;;193.25;157.75;;;;;0.91;100.00;102468.59;5077467;27;44970;-81
2022/01/15 06:49:28;;;;;;;;;176.50;147.50;;;;;0.89;100.00;102472.97;5076954;27;45069;-82
2022/01/15 06:51:54;;;;;;;;;172.25;149.25;;;;;0.88;100.00;102466.00;5059173;28;45437;-83
2022/01/15 06:54:19;;;;;;;;;188.50;153.50;;;;;0.86;100.00;102463.38;5077237;27;44892;-82
2022/01/15 06:56:45;;;;;;;;;144.75;141.00;;;;;0.85;100.00;102468.59;5077759;27;44755;-81
2022/01/15 06:59:10;;;;;;;;;192.50;161.50;;;;;0.85;100.00;102463.38;5095220;27;46144;-82
2022/01/15 07:01:37;;;;;;;;;164.75;143.25;;;;;0.85;100.00;102458.16;5098614;28;44781;-83
2022/01/15 07:04:02;;;;;;;;;174.25;149.00;;;;;0.88;100.00;102455.53;5094638;27;44669;-81
2022/01/15 07:06:28;;;;;;;;;164.25;148.00;;;;;0.87;100.00;102449.44;5098397;28;44860;-82
2022/01/15 07:08:53;;;;;;;;;179.25;154.00;;;;;0.86;100.00;102447.66;5090388;27;45225;-83
2022/01/15 07:11:18;;;;;;;;;175.00;153.00;;;;;0.86;100.00;102446.81;5077805;27;45310;-82
2022/01/15 07:13:44;;;;;;;;;165.00;144.50;;;;;0.84;100.00;102441.59;5078441;27;45253;-82
2022/01/15 07:16:09;;;;;;;;;166.25;156.25;;;;;0.84;100.00;102438.97;5077279;27;44752;-82
2022/01/15 07:18:34;;;;;;;;;193.25;155.75;;;;;0.84;100.00;102431.13;5076517;27;45097;-82
2022/01/15 07:21:01;;;;;;;;;175.50;141.50;;;;;0.83;100.00;102426.75;5076550;27;44712;-83
2022/01/15 07:23:26;;;;;;;;;173.50;150.00;;;;;0.84;100.00;102443.31;5076513;27;44910;-83
2022/01/15 07:25:52;;;;;;;;;182.00;153.25;;;;;0.83;100.00;102442.47;5076660;27;45597;-83
2022/01/15 07:28:18;;;;;;;;;188.25;159.75;;;;;0.83;100.00;102438.97;5076004;27;45178;-82
2022/01/15 07:30:45;;;;;;;;;177.00;150.25;;;;;0.84;100.00;102438.97;5057354;28;44868;-80
2022/01/15 07:33:11;;;;;;;;;171.75;153.75;;;;;0.87;100.00;102443.31;5076647;27;44839;-83
2022/01/15 07:35:37;;;;;;;;;171.00;149.50;;;;;0.85;100.00;102440.69;5058610;28;44931;-83
2022/01/15 07:38:03;;;;;;;;;166.25;147.25;;;;;0.85;100.00;102442.44;5058664;27;46382;-83
2022/01/15 07:40:28;;;;;;;;;177.75;145.00;;;;;0.85;100.00;102432.84;5079918;28;45400;-83
2022/01/15 07:42:54;;;;;;;;;152.25;144.75;;;;;0.88;100.00;102432.88;5086629;27;44699;-83
2022/01/15 07:45:19;;;;;;;;;177.75;152.50;;;;;0.90;100.00;102432.84;5083146;28;44879;-82
2022/01/15 07:47:45;;;;;;;;;151.00;140.75;;;;;0.92;100.00;102426.78;5076831;28;45296;-83
2022/01/15 07:50:14;;;;;;;;;165.00;141.75;;;;;0.93;100.00;102435.50;5078452;27;44776;-82
2022/01/15 07:52:39;;;;;;;;;173.00;149.25;;;;;0.94;100.00;102440.72;5081559;28;44731;-82
2022/01/15 07:55:06;;;;;;;;;161.50;142.25;;;;;0.95;100.00;102428.50;5083916;28;44722;-83
2022/01/15 07:57:32;;;;;;;;;153.75;136.75;;;;;0.99;100.00;102435.47;5081162;28;45234;-83
2022/01/15 07:59:57;;;;;;;;;159.75;139.25;;;;;0.99;100.00;102431.13;5079888;27;45319;-84
2022/01/15 08:02:22;;;;;;;;;179.00;151.75;;;;;1.03;100.00;102439.84;5062990;28;44754;-82
2022/01/15 08:04:48;;;;;;;;;139.00;125.50;;;;;1.09;100.00;102439.84;5082082;28;44713;-83
2022/01/15 08:07:14;;;;;;;;;167.00;142.25;;;;;1.12;100.00;102433.75;5080532;28;45335;-83
2022/01/15 08:09:39;;;;;;;;;153.75;139.25;;;;;1.15;100.00;102428.50;5078280;27;44773;-83
2022/01/15 08:12:05;;;;;;;;;168.00;146.25;;;;;1.18;100.00;102418.91;5059764;28;45179;-82
2022/01/15 08:14:31;;;;;;;;;151.75;135.50;;;;;1.26;100.00;102432.84;5078166;28;44781;-82
2022/01/15 08:16:57;;;;;;;;;156.00;140.25;;;;;1.31;100.00;102421.50;5077034;28;45385;-81
2022/01/15 08:19:22;;;;;;;;;159.75;140.00;;;;;1.36;100.00;102422.38;5078069;27;44847;-81
2022/01/15 08:21:48;;;;;;;;;159.00;138.75;;;;;1.41;100.00;102420.63;5085199;27;45405;-83
2022/01/15 08:24:13;;;;;;;;;171.25;140.00;;;;;1.44;100.00;102410.13;5086914;28;44876;-83
2022/01/15 08:26:39;;;;;;;;;145.50;128.25;;;;;1.49;100.00;102411.84;5078236;27;45448;-83
2022/01/15 08:29:05;;;;;;;;;165.50;141.75;;;;;1.56;100.00;102415.34;5076174;28;45503;-83
2022/01/15 08:31:30;;;;;;;;;159.25;137.50;;;;;1.59;100.00;102417.94;5075941;27;44861;-83
2022/01/15 08:33:56;;;;;;;;;154.00;128.25;;;;;1.65;100.00;102417.94;5076099;28;44835;-83
2022/01/15 08:36:22;;;;;;;;;160.25;129.75;;;;;1.72;100.00;102414.41;5075886;28;45233;-83
2022/01/15 08:38:47;;;;;;;;;159.50;137.75;;;;;1.78;100.00;102413.50;5059203;28;45308;-82
2022/01/15 08:41:14;;;;;;;;;155.50;135.00;;;;;1.87;100.00;102417.84;5076254;27;44817;-83
2022/01/15 08:43:41;;;;;;;;;150.25;134.00;;;;;1.92;100.00;102406.47;5076240;27;45279;-84
2022/01/15 08:46:07;;;;;;;;;174.50;142.50;;;;;2.00;100.00;102416.94;5078242;27;45322;-83
2022/01/15 08:48:32;;;;;;;;;155.50;138.25;;;;;2.09;100.00;102409.03;5074988;27;44855;-83
2022/01/15 08:50:58;;;;;;;;;149.00;130.25;;;;;2.19;100.00;102407.22;5075582;27;45296;-84
2022/01/15 08:53:23;;;;;;;;;149.50;130.00;;;;;2.27;100.00;102410.66;5059528;28;45370;-84
2022/01/15 08:55:49;;;;;;;;;141.50;124.75;;;;;2.33;100.00;102405.41;5078897;27;45370;-82
2022/01/15 08:58:15;;;;;;;;;161.25;132.25;;;;;2.43;100.00;102411.47;5079780;28;45415;-84
2022/01/15 09:00:40;;;;;;;;;146.25;128.25;;;;;2.51;100.00;102409.66;5083710;27;44836;-84
2022/01/15 09:03:07;;;;;;;;;143.25;123.25;;;;;2.62;100.00;102412.22;5085718;27;44916;-83
2022/01/15 09:05:36;;;;;;;;;149.75;138.50;;;;;2.68;100.00;102418.28;5084655;27;45504;-83
2022/01/15 09:08:04;;;;;;;;;150.75;130.75;;;;;2.79;100.00;102418.19;5065909;28;44712;-84
2022/01/15 09:10:29;;;;;;;;;160.75;134.25;;;;;2.84;100.00;102424.28;5078795;27;44869;-83
2022/01/15 09:12:55;;;;;;;;;124.00;115.25;;;;;2.88;100.00;102422.50;5078596;28;44760;-83
2022/01/15 09:15:21;;;;;;;;;145.25;123.75;;;;;2.92;100.00;102424.22;5078764;27;45331;-83
2022/01/15 09:17:46;;;;;;;;;148.75;130.25;;;;;3.00;100.00;102414.56;5062863;28;44781;-83
2022/01/15 09:20:12;;;;;;;;;157.50;138.75;;;;;3.09;100.00;102417.06;5060415;28;45252;-83
2022/01/15 09:22:38;;;;;;;;;153.50;137.50;;;;;3.20;100.00;102417.00;5078356;27;44857;-83
2022/01/15 09:25:04;;;;;;;;;153.00;134.50;;;;;3.31;100.00;102417.75;5078485;27;45194;-84
2022/01/15 09:30:15;;;;;;;;;163.25;141.25;;;;;3.53;100.00;102413.13;5079225;28;45201;-84
2022/01/15 09:32:50;;;;;;;;;153.50;135.00;;;;;3.62;100.00;102413.03;5079461;28;44813;-83
2022/01/15 09:35:19;;;;;;;;;166.50;145.75;;;;;3.70;100.00;102402.44;5079417;27;45077;-83
2022/01/15 09:37:47;;;;;;;;;167.75;152.50;;;;;3.79;100.00;102407.59;5080085;27;44782;-83
2022/01/15 09:40:12;;;;;;;;;163.00;143.50;;;;;3.86;100.00;102406.63;5083748;28;44725;-84
2022/01/15 09:42:39;;;;;;;;;169.50;147.50;;;;;3.98;100.00;102413.50;5085582;27;44800;-83
2022/01/15 09:45:07;;;;;;;;;159.00;138.00;;;;;4.08;100.00;102417.75;5079621;28;45384;-84
2022/01/15 09:47:33;;;;;;;;;165.25;135.00;;;;;4.16;100.00;102415.91;5081067;27;44831;-84
2022/01/15 09:49:59;;;;;;;;;140.00;134.50;;;;;4.25;100.00;102412.25;5084811;27;45303;-84
2022/01/15 09:52:24;;;;;;;;;150.00;133.75;;;;;4.34;100.00;102412.13;5082041;27;45439;-84
2022/01/15 09:54:50;;;;;;;;;150.25;140.75;;;;;4.40;100.00;102406.81;5062287;28;46712;-84
2022/01/15 09:57:17;;;;;;;;;151.75;129.75;;;;;4.51;100.00;102410.16;5060783;28;45634;-84
2022/01/15 09:59:43;;;;;;;;;156.50;137.50;;;;;4.57;100.00;102409.19;5061974;27;45416;-84
2022/01/15 10:02:09;;;;;;;;;154.25;132.25;;;;;4.63;100.00;102403.81;5082820;27;44815;-85
2022/01/15 10:04:35;;;;;;;;;147.75;129.00;;;;;4.73;100.00;102410.66;5059187;28;46998;-85
2022/01/15 10:07:16;;;;;;;;;135.50;120.75;;;;;4.81;100.00;102397.41;5061224;28;44963;-85
2022/01/15 10:09:43;;;;;;;;;135.50;122.00;;;;;4.89;100.00;102395.50;5081951;27;44873;-84
2022/01/15 10:12:11;;;;;;;;;142.50;132.00;;;;;4.94;100.00;102393.69;5064508;28;45177;-84
2022/01/15 10:14:40;;;;;;;;;144.75;123.00;;;;;4.99;100.00;102389.19;5082124;28;45541;-84
2022/01/15 10:17:24;;;;;;;;;154.75;125.25;;;;;5.06;100.00;102392.59;5087810;28;44800;-83
2022/01/15 10:19:51;;;;;;;;;139.25;120.25;;;;;5.12;100.00;102395.97;5068774;28;45439;-85
2022/01/15 10:22:18;;;;;;;;;138.50;117.00;;;;;5.18;100.00;102396.78;5087168;27;44840;-85
2022/01/15 10:25:07;;;;;;;;;136.50;120.00;;;;;5.26;100.00;102402.75;5081586;27;45563;-84
2022/01/15 10:27:34;;;;;;;;;147.25;126.50;;;;;5.31;100.00;102400.91;5085705;27;44776;-84
2022/01/15 10:29:59;;;;;;;;;118.50;107.00;;;;;5.34;100.00;102392.97;5085921;27;44750;-85
2022/01/15 10:32:26;;;;;;;;;143.75;123.50;;;;;5.39;100.00;102391.09;5087094;27;44709;-84
2022/01/15 10:34:53;;;;;;;;;129.25;117.25;;;;;5.48;100.00;102382.16;5085024;27;45515;-84
2022/01/15 10:37:21;;;;;;;;;145.25;126.50;;;;;5.54;100.00;102371.50;5067362;28;44893;-84
2022/01/15 10:40:10;;;;;;;;;142.25;128.75;;;;;5.62;100.00;102366.94;5085052;27;44899;-84
2022/01/15 10:42:36;;;;;;;;;127.25;111.75;;;;;5.70;100.00;102370.28;5063276;28;45377;-84
2022/01/15 10:45:13;;;;;;;;;141.75;126.50;;;;;5.75;100.00;102365.78;5061892;28;45368;-85
2022/01/15 10:47:49;;;;;;;;;157.25;128.75;;;;;5.79;100.00;102366.59;5061275;28;45320;-85
2022/01/15 10:50:23;;;;;;;;;134.00;118.00;;;;;5.84;100.00;102367.34;5078136;27;44803;-85
2022/01/15 10:52:51;;;;;;;;;140.50;124.25;;;;;5.88;100.00;102356.72;5078060;27;44991;-84
2022/01/15 10:55:17;;;;;;;;;138.50;115.25;;;;;5.96;100.00;102364.50;5079129;27;45368;-85
2022/01/15 10:57:53;;;;;;;;;146.00;120.00;;;;;6.03;100.00;102358.19;5081966;27;45322;-83
2022/01/15 11:00:24;;;;;;;;;130.25;119.50;;;;;6.06;100.00;102355.50;5067422;28;44826;-83
2022/01/15 11:02:52;;;;;;;;;142.25;130.00;;;;;6.09;100.00;102354.53;5084203;28;44639;-85
2022/01/15 11:05:21;;;;;;;;;145.00;121.75;;;;;6.15;100.00;102347.38;5079398;27;45395;-83
2022/01/15 11:07:47;;;;;;;;;146.25;125.00;;;;;6.18;100.00;102349.91;5078225;27;45408;-84
2022/01/15 11:10:12;;;;;;;;;150.75;129.50;;;;;6.21;100.00;102342.84;5079235;28;44655;-85
2022/01/15 11:12:39;;;;;;;;;141.75;128.75;;;;;6.23;100.00;102338.41;5062847;27;44991;-85